Norwegian Dream — C6LG5 — position and weather

sailwx.info

Track history (hours):
 
Tides and Currents Weather Stations Pressure Air Temp Water Temp Dewpoint Dewpoint Depression Visibility Wind Speed Wind Dir Waves Ship Positions

Norwegian Dream

Operator: Norwegian Cruise Line

Last reported at 2019-Jul-22 06:52 UTC. Time now 2019-Jul-22 14:38 UTC.
Position N 25°19' E 122°03'.

Type: Ship. MMSI: 308272000.

Date/timePositionNaut miles runAvg speedWind from/ knotsBaromVisibWave heightAir tempDewpointWater temp
2019-Jul-22 06:52N 25°19' E 122°03'615.0
2019-Jul-22 06:28N 25°19' E 121°57'815.3
2019-Jul-22 05:58N 25°21' E 121°48'715.3
2019-Jul-22 05:29N 25°22' E 121°40'714.9
2019-Jul-22 05:00N 25°24' E 121°33'814.0
2019-Jul-22 04:26N 25°21' E 121°24'614.8
2019-Jul-22 04:00N 25°18' E 121°18'1314.7
2019-Jul-22 03:09N 25°13' E 121°05'314.1
2019-Jul-22 02:57N 25°12' E 121°02'14616.3
2019-Jul-21 18:00N 24°12' E 118°36'123 6.3 180 / 191007.0 5.4 27.025.729.0
2019-Jul-20 22:32N 25°02' E 120°39'1215.8
2019-Jul-20 21:48N 25°08' E 120°51'515.6
2019-Jul-20 21:30N 25°10' E 120°55'715.1
2019-Jul-20 21:00N 25°13' E 121°03'714.1
2019-Jul-20 20:30N 25°16' E 121°10'714.2
2019-Jul-20 20:00N 25°18' E 121°17'815.0
2019-Jul-20 19:29N 25°21' E 121°25'815.2
2019-Jul-20 18:57N 25°23' E 121°34'715.1
2019-Jul-20 18:28N 25°21' E 121°42'715.6
2019-Jul-20 18:00N 25°21' E 121°50'3199.0
2019-Jul-20 18:00N 25°18' E 121°48'1019.8 100 / 61007.0 5.4 28.026.729.0
2019-Jul-20 17:30N 25°20' E 121°59'916.2
2019-Jul-20 16:58N 25°19' E 122°08'816.7
2019-Jul-20 16:29N 25°18' E 122°17'917.7
2019-Jul-20 15:59N 25°17' E 122°27'113 5.1
2019-Jul-19 18:00N 25°00' E 124°30'13312.1 210 / 211004.0 5.4 28.026.729.0
2019-Jul-19 07:00N 25°19' E 122°05'610.6
2019-Jul-19 06:27N 25°20' E 121°58'511.4
2019-Jul-19 06:00N 25°21' E 121°53'612.2
2019-Jul-19 05:29N 25°21' E 121°46'712.8
2019-Jul-19 04:57N 25°22' E 121°38'712.6
2019-Jul-19 04:26N 25°22' E 121°31'612.2
2019-Jul-19 03:55N 25°20' E 121°24'511.4
2019-Jul-19 03:28N 25°18' E 121°19'510.7
2019-Jul-19 03:00N 25°17' E 121°14'610.6
2019-Jul-19 02:28N 25°14' E 121°08'510.5
2019-Jul-19 02:00N 25°12' E 121°03'611.1
2019-Jul-19 01:30N 25°10' E 120°57'11415.2
2019-Jul-18 18:00N 24°18' E 119°06'67 2.8 090 / 2999.0 5.4 27.025.729.0
2019-Jul-17 18:00N 24°48' E 120°12'4012.3 030 / 31998.0 5.4 28.026.730.0
2019-Jul-17 14:44N 25°06' E 120°51'412.9
2019-Jul-17 14:25N 25°08' E 120°55'613.6
2019-Jul-17 14:00N 25°10' E 121°01'714.3
2019-Jul-17 13:30N 25°13' E 121°08'714.5
2019-Jul-17 13:00N 25°16' E 121°15'815.3
2019-Jul-17 12:29N 25°20' E 121°23'715.4
2019-Jul-17 12:00N 25°22' E 121°31'814.4
2019-Jul-17 11:28N 25°22' E 121°39'613.8
2019-Jul-17 11:00N 25°20' E 121°46'713.5
2019-Jul-17 10:29N 25°17' E 121°53'611.3
2019-Jul-17 09:58N 25°15' E 121°59'611.7
2019-Jul-17 09:27N 25°12' E 122°05'611.5
2019-Jul-17 08:56N 25°10' E 122°11'610.5
2019-Jul-17 08:24N 25°08' E 122°17'20214.0
2019-Jul-16 18:00N 25°24' E 126°00'26 1.1 080 / 211005.0 5.4 29.027.730.0
2019-Jul-15 18:00N 25°48' E 126°12'23516.6 080 / 121008.0 5.4 29.027.730.0
2019-Jul-15 03:48N 25°24' E 121°53'618.3
2019-Jul-15 03:27N 25°24' E 121°46'1018.2
2019-Jul-15 02:56N 25°24' E 121°35'818.2
2019-Jul-15 02:29N 25°22' E 121°26'1119.5
2019-Jul-15 01:56N 25°17' E 121°15'614.5
2019-Jul-15 01:30N 25°15' E 121°09'917.7
2019-Jul-15 01:00N 25°11' E 121°01'13419.1
2019-Jul-14 18:00N 24°12' E 118°48'127 6.0 200 / 161006.0 5.4 27.025.729.0
2019-Jul-13 20:52N 25°08' E 120°54'515.0
2019-Jul-13 20:30N 25°10' E 120°59'714.9
2019-Jul-13 20:00N 25°13' E 121°07'815.5
2019-Jul-13 19:30N 25°17' E 121°14'816.0
2019-Jul-13 19:00N 25°20' E 121°22'816.2
2019-Jul-13 18:30N 25°22' E 121°31'1121.1
2019-Jul-13 18:00N 25°18' E 121°42'5139.9 270 / 61005.0 5.4 29.027.730.0
2019-Jul-13 17:58N 25°22' E 121°41'816.4
2019-Jul-13 17:27N 25°22' E 121°50'916.9
2019-Jul-13 16:56N 25°20' E 121°59'817.2
2019-Jul-13 16:30N 25°20' E 122°08'916.8
2019-Jul-13 15:59N 25°18' E 122°17'1217.2
2019-Jul-13 15:16N 25°16' E 122°31'104 4.9
2019-Jul-12 18:00N 25°00' E 124°24'14313.4 200 / 311007.0 5.4 29.027.730.0
2019-Jul-12 07:23N 25°20' E 121°48'512.6
2019-Jul-12 06:59N 25°22' E 121°42'  
Track history (hours):
 
Tides and Currents Weather Stations Pressure Air Temp Water Temp Dewpoint Dewpoint Depression Visibility Wind Speed Wind Dir Waves Ship Positions

Norwegian Dream

Operator: Norwegian Cruise Line

Last reported at 2019-Jul-22 06:52 UTC. Time now 2019-Jul-22 14:38 UTC.
Position N 25°19' E 122°03'.

Type: Ship. MMSI: 308272000.

Date/timePositionNaut miles runAvg speedWind from/ knotsBaromVisibWave heightAir tempDewpointWater temp
2019-Jul-22 06:52N 25°19' E 122°03'615.0
2019-Jul-22 06:28N 25°19' E 121°57'815.3
2019-Jul-22 05:58N 25°21' E 121°48'715.3
2019-Jul-22 05:29N 25°22' E 121°40'714.9
2019-Jul-22 05:00N 25°24' E 121°33'814.0
2019-Jul-22 04:26N 25°21' E 121°24'614.8
2019-Jul-22 04:00N 25°18' E 121°18'1314.7
2019-Jul-22 03:09N 25°13' E 121°05'314.1
2019-Jul-22 02:57N 25°12' E 121°02'14616.3
2019-Jul-21 18:00N 24°12' E 118°36'123 6.3 180 / 191007.0 5.4 27.025.729.0
2019-Jul-20 22:32N 25°02' E 120°39'1215.8
2019-Jul-20 21:48N 25°08' E 120°51'515.6
2019-Jul-20 21:30N 25°10' E 120°55'715.1
2019-Jul-20 21:00N 25°13' E 121°03'714.1
2019-Jul-20 20:30N 25°16' E 121°10'714.2
2019-Jul-20 20:00N 25°18' E 121°17'815.0
2019-Jul-20 19:29N 25°21' E 121°25'815.2
2019-Jul-20 18:57N 25°23' E 121°34'715.1
2019-Jul-20 18:28N 25°21' E 121°42'715.6
2019-Jul-20 18:00N 25°21' E 121°50'3199.0
2019-Jul-20 18:00N 25°18' E 121°48'1019.8 100 / 61007.0 5.4 28.026.729.0
2019-Jul-20 17:30N 25°20' E 121°59'916.2
2019-Jul-20 16:58N 25°19' E 122°08'816.7
2019-Jul-20 16:29N 25°18' E 122°17'917.7
2019-Jul-20 15:59N 25°17' E 122°27'113 5.1
2019-Jul-19 18:00N 25°00' E 124°30'13312.1 210 / 211004.0 5.4 28.026.729.0
2019-Jul-19 07:00N 25°19' E 122°05'610.6
2019-Jul-19 06:27N 25°20' E 121°58'511.4
2019-Jul-19 06:00N 25°21' E 121°53'612.2
2019-Jul-19 05:29N 25°21' E 121°46'712.8
2019-Jul-19 04:57N 25°22' E 121°38'712.6
2019-Jul-19 04:26N 25°22' E 121°31'612.2
2019-Jul-19 03:55N 25°20' E 121°24'511.4
2019-Jul-19 03:28N 25°18' E 121°19'510.7
2019-Jul-19 03:00N 25°17' E 121°14'610.6
2019-Jul-19 02:28N 25°14' E 121°08'510.5
2019-Jul-19 02:00N 25°12' E 121°03'611.1
2019-Jul-19 01:30N 25°10' E 120°57'11415.2
2019-Jul-18 18:00N 24°18' E 119°06'67 2.8 090 / 2999.0 5.4 27.025.729.0
2019-Jul-17 18:00N 24°48' E 120°12'4012.3 030 / 31998.0 5.4 28.026.730.0
2019-Jul-17 14:44N 25°06' E 120°51'412.9
2019-Jul-17 14:25N 25°08' E 120°55'613.6
2019-Jul-17 14:00N 25°10' E 121°01'714.3
2019-Jul-17 13:30N 25°13' E 121°08'714.5
2019-Jul-17 13:00N 25°16' E 121°15'815.3
2019-Jul-17 12:29N 25°20' E 121°23'715.4
2019-Jul-17 12:00N 25°22' E 121°31'814.4
2019-Jul-17 11:28N 25°22' E 121°39'613.8
2019-Jul-17 11:00N 25°20' E 121°46'713.5
2019-Jul-17 10:29N 25°17' E 121°53'611.3
2019-Jul-17 09:58N 25°15' E 121°59'611.7
2019-Jul-17 09:27N 25°12' E 122°05'611.5
2019-Jul-17 08:56N 25°10' E 122°11'610.5
2019-Jul-17 08:24N 25°08' E 122°17'20214.0
2019-Jul-16 18:00N 25°24' E 126°00'26 1.1 080 / 211005.0 5.4 29.027.730.0
2019-Jul-15 18:00N 25°48' E 126°12'23516.6 080 / 121008.0 5.4 29.027.730.0
2019-Jul-15 03:48N 25°24' E 121°53'618.3
2019-Jul-15 03:27N 25°24' E 121°46'1018.2
2019-Jul-15 02:56N 25°24' E 121°35'818.2
2019-Jul-15 02:29N 25°22' E 121°26'1119.5
2019-Jul-15 01:56N 25°17' E 121°15'614.5
2019-Jul-15 01:30N 25°15' E 121°09'917.7
2019-Jul-15 01:00N 25°11' E 121°01'13419.1
2019-Jul-14 18:00N 24°12' E 118°48'127 6.0 200 / 161006.0 5.4 27.025.729.0
2019-Jul-13 20:52N 25°08' E 120°54'515.0
2019-Jul-13 20:30N 25°10' E 120°59'714.9
2019-Jul-13 20:00N 25°13' E 121°07'815.5
2019-Jul-13 19:30N 25°17' E 121°14'816.0
2019-Jul-13 19:00N 25°20' E 121°22'816.2
2019-Jul-13 18:30N 25°22' E 121°31'1121.1
2019-Jul-13 18:00N 25°18' E 121°42'5139.9 270 / 61005.0 5.4 29.027.730.0
2019-Jul-13 17:58N 25°22' E 121°41'816.4
2019-Jul-13 17:27N 25°22' E 121°50'916.9
2019-Jul-13 16:56N 25°20' E 121°59'817.2
2019-Jul-13 16:30N 25°20' E 122°08'916.8
2019-Jul-13 15:59N 25°18' E 122°17'1217.2
2019-Jul-13 15:16N 25°16' E 122°31'104 4.9
2019-Jul-12 18:00N 25°00' E 124°24'14313.4 200 / 311007.0 5.4 29.027.730.0
2019-Jul-12 07:23N 25°20' E 121°48'512.6
2019-Jul-12 06:59N 25°22' E 121°42'  

Dump ship's entire track history